createdAt,value
2019-01-20T00:00:22.399Z,334.45
2019-01-20T00:00:57.818Z,334.18
2019-01-20T00:01:33.217Z,332.70
2019-01-20T00:02:08.557Z,337.05
2019-01-20T00:02:43.898Z,310.77
2019-01-20T00:03:19.378Z,289.15
2019-01-20T00:03:54.839Z,268.65
2019-01-20T00:04:30.185Z,272.37
2019-01-20T00:05:06.597Z,314.70
2019-01-20T00:05:42.275Z,271.20
2019-01-20T00:06:18.092Z,274.05
2019-01-20T00:06:53.762Z,293.37
2019-01-20T00:07:29.515Z,296.87
2019-01-20T00:08:05.379Z,276.55
2019-01-20T00:08:41.102Z,301.60
2019-01-20T00:09:16.670Z,301.20
2019-01-20T00:09:52.448Z,326.60
2019-01-20T00:10:28.065Z,336.07
2019-01-20T00:11:03.843Z,369.65
2019-01-20T00:11:39.577Z,390.38
2019-01-20T00:12:15.251Z,389.48
2019-01-20T00:12:50.821Z,380.85
2019-01-20T00:13:26.751Z,275.73
2019-01-20T00:14:02.393Z,292.40
2019-01-20T00:14:38.111Z,353.60
2019-01-20T00:15:14.030Z,382.85
2019-01-20T00:15:49.751Z,317.87
2019-01-20T00:16:25.459Z,315.73
2019-01-20T00:17:01.386Z,277.73
2019-01-20T00:17:37.213Z,255.40
2019-01-20T00:18:12.972Z,265.32
2019-01-20T00:18:48.723Z,271.05
2019-01-20T00:19:24.336Z,309.55
2019-01-20T00:20:00.015Z,270.52
2019-01-20T00:20:35.863Z,294.50
2019-01-20T00:21:11.605Z,295.55
2019-01-20T00:21:47.406Z,316.27
2019-01-20T00:22:23.103Z,342.43
2019-01-20T00:22:58.813Z,295.50
2019-01-20T00:23:34.512Z,291.00
2019-01-20T00:24:10.396Z,313.05
2019-01-20T00:24:46.218Z,290.30
2019-01-20T00:25:21.902Z,302.75
2019-01-20T00:25:57.553Z,282.07
2019-01-20T00:26:33.240Z,291.80
2019-01-20T00:27:09.211Z,276.73
2019-01-20T00:27:44.942Z,281.75
2019-01-20T00:28:20.516Z,303.20
2019-01-20T00:28:56.077Z,292.32
2019-01-20T00:29:31.691Z,291.50
2019-01-20T00:30:09.039Z,297.20
2019-01-20T00:30:44.588Z,316.45
2019-01-20T00:31:20.280Z,338.82
2019-01-20T00:31:56.063Z,339.32
2019-01-20T00:32:31.599Z,320.93
2019-01-20T00:33:08.808Z,276.82
2019-01-20T00:33:44.388Z,302.27
2019-01-20T00:34:20.165Z,303.90
2019-01-20T00:34:55.879Z,304.35
2019-01-20T00:35:31.538Z,301.58
2019-01-20T00:36:07.027Z,318.82
2019-01-20T00:36:42.769Z,331.73
2019-01-20T00:37:18.608Z,319.87
2019-01-20T00:37:54.369Z,319.45
2019-01-20T00:38:30.160Z,341.73
2019-01-20T00:39:08.631Z,356.27
2019-01-20T00:39:44.151Z,334.25
2019-01-20T00:40:19.879Z,337.02
2019-01-20T00:40:55.497Z,322.37
2019-01-20T00:41:31.170Z,339.42
2019-01-20T00:42:06.870Z,339.27
2019-01-20T00:42:42.610Z,371.52
2019-01-20T00:43:18.367Z,345.40
2019-01-20T00:43:54.543Z,364.55
2019-01-20T00:44:30.320Z,368.35
2019-01-20T00:45:07.060Z,374.32
2019-01-20T00:45:42.781Z,367.87
2019-01-20T00:46:18.453Z,357.55
2019-01-20T00:46:54.129Z,385.25
2019-01-20T00:47:29.930Z,397.65
2019-01-20T00:48:05.680Z,379.55
2019-01-20T00:48:41.341Z,389.90
2019-01-20T00:49:17.120Z,377.22
2019-01-20T00:49:52.748Z,358.73
2019-01-20T00:50:28.509Z,354.00
2019-01-20T00:51:04.277Z,369.93
2019-01-20T00:51:40.007Z,357.00
2019-01-20T00:52:15.759Z,362.02
2019-01-20T00:52:51.398Z,375.48
2019-01-20T00:53:27.122Z,385.65
2019-01-20T00:54:02.959Z,369.32
2019-01-20T00:54:39.019Z,378.15
2019-01-20T00:55:16.595Z,347.07
2019-01-20T00:55:52.216Z,374.52
2019-01-20T00:56:27.927Z,382.00
2019-01-20T00:57:03.689Z,394.55
2019-01-20T00:57:40.248Z,384.27
2019-01-20T00:58:15.987Z,353.77
2019-01-20T00:58:51.501Z,343.85
2019-01-20T00:59:27.070Z,364.70
2019-01-20T01:00:03.308Z,340.00
2019-01-20T01:00:38.900Z,347.90
2019-01-20T01:01:14.750Z,346.62
2019-01-20T01:01:50.368Z,342.50
2019-01-20T01:02:25.840Z,338.92
2019-01-20T01:03:01.543Z,321.68
2019-01-20T01:03:37.118Z,320.70
2019-01-20T01:04:12.875Z,345.07
2019-01-20T01:04:48.698Z,339.05
2019-01-20T01:05:24.720Z,337.68
2019-01-20T01:06:00.261Z,346.68
2019-01-20T01:06:35.884Z,353.52
2019-01-20T01:07:11.731Z,326.55
2019-01-20T01:07:47.582Z,317.00
2019-01-20T01:08:23.321Z,342.10
2019-01-20T01:08:58.974Z,325.30
2019-01-20T01:09:34.762Z,340.43
2019-01-20T01:10:11.056Z,330.62
2019-01-20T01:10:47.042Z,317.10
2019-01-20T01:11:22.640Z,332.18
2019-01-20T01:11:58.281Z,329.02
2019-01-20T01:12:34.031Z,332.75
2019-01-20T01:13:10.389Z,330.87
2019-01-20T01:13:46.103Z,361.07
2019-01-20T01:14:21.722Z,346.40
2019-01-20T01:14:57.540Z,335.52
2019-01-20T01:15:33.422Z,318.88
2019-01-20T01:16:09.031Z,320.88
2019-01-20T01:16:44.837Z,323.13
2019-01-20T01:17:20.696Z,350.98
2019-01-20T01:17:56.338Z,370.97
2019-01-20T01:18:32.009Z,372.48
2019-01-20T01:19:07.865Z,333.50
2019-01-20T01:19:43.703Z,344.23
2019-01-20T01:20:20.339Z,320.33
2019-01-20T01:20:55.950Z,337.52
2019-01-20T01:21:31.639Z,317.57
2019-01-20T01:22:07.540Z,317.95
2019-01-20T01:22:43.380Z,326.95
2019-01-20T01:23:19.022Z,345.50
2019-01-20T01:23:54.822Z,341.70
2019-01-20T01:24:30.699Z,319.15
2019-01-20T01:25:07.122Z,335.77
2019-01-20T01:25:43.010Z,310.02
2019-01-20T01:26:18.680Z,331.17
2019-01-20T01:26:54.280Z,318.82
2019-01-20T01:27:29.909Z,303.73
2019-01-20T01:28:06.370Z,311.10
2019-01-20T01:28:42.006Z,323.90
2019-01-20T01:29:17.768Z,314.50
2019-01-20T01:29:53.417Z,304.30
2019-01-20T01:30:29.224Z,299.80
2019-01-20T01:31:05.039Z,306.85
2019-01-20T01:31:40.679Z,298.75
2019-01-20T01:32:16.233Z,283.85
2019-01-20T01:32:51.941Z,284.30
2019-01-20T01:33:27.594Z,293.82
2019-01-20T01:34:03.324Z,278.50
2019-01-20T01:34:39.211Z,272.75
2019-01-20T01:35:15.373Z,288.12
2019-01-20T01:35:50.982Z,264.93
2019-01-20T01:36:26.610Z,297.00
2019-01-20T01:37:02.316Z,260.80
2019-01-20T01:37:37.953Z,278.45
2019-01-20T01:38:13.587Z,280.12
2019-01-20T01:38:49.348Z,265.45
2019-01-20T01:39:25.044Z,271.85
2019-01-20T01:40:00.794Z,277.43
2019-01-20T01:40:36.455Z,264.50
2019-01-20T01:41:12.195Z,257.77
2019-01-20T01:41:48.062Z,243.85
2019-01-20T01:42:23.793Z,266.70
2019-01-20T01:42:59.465Z,261.90
2019-01-20T01:43:35.253Z,256.20
2019-01-20T01:44:10.984Z,266.55
2019-01-20T01:44:46.494Z,271.62
2019-01-20T01:45:22.744Z,287.38
2019-01-20T01:45:58.594Z,285.68
2019-01-20T01:46:34.465Z,276.00
2019-01-20T01:47:10.094Z,269.07
2019-01-20T01:47:45.923Z,272.67
2019-01-20T01:48:21.659Z,290.35
2019-01-20T01:48:57.518Z,242.22
2019-01-20T01:49:33.289Z,251.80
2019-01-20T01:50:09.416Z,247.50
2019-01-20T01:50:45.081Z,231.43
2019-01-20T01:51:21.896Z,235.90
2019-01-20T01:51:57.519Z,216.10
2019-01-20T01:52:33.194Z,232.40
2019-01-20T01:53:08.814Z,234.92
2019-01-20T01:53:44.413Z,247.90
2019-01-20T01:54:20.047Z,246.22
2019-01-20T01:54:56.073Z,247.07
2019-01-20T01:55:31.732Z,233.05
2019-01-20T01:56:08.128Z,257.40
2019-01-20T01:56:43.840Z,265.35
2019-01-20T01:57:19.530Z,248.38
2019-01-20T01:57:55.416Z,252.68
2019-01-20T01:58:31.247Z,270.25
2019-01-20T01:59:07.182Z,268.75
2019-01-20T01:59:42.798Z,276.60
2019-01-20T02:00:20.780Z,265.12
2019-01-20T02:00:56.538Z,259.00
2019-01-20T02:01:32.259Z,266.77
2019-01-20T02:02:07.978Z,262.82
2019-01-20T02:02:43.838Z,263.07
2019-01-20T02:03:19.462Z,279.75
2019-01-20T02:03:55.159Z,254.32
2019-01-20T02:04:30.700Z,268.70
2019-01-20T02:05:06.673Z,251.73
2019-01-20T02:05:42.221Z,252.40
2019-01-20T02:06:17.867Z,253.83
2019-01-20T02:06:53.572Z,254.47
2019-01-20T02:07:29.240Z,269.20
2019-01-20T02:08:05.282Z,260.90
2019-01-20T02:08:40.930Z,271.55
2019-01-20T02:09:16.769Z,273.45
2019-01-20T02:09:52.384Z,262.10
2019-01-20T02:10:28.157Z,268.70
2019-01-20T02:11:03.682Z,268.15
2019-01-20T02:11:46.621Z,292.70
2019-01-20T02:12:16.860Z,294.93
2019-01-20T02:12:53.097Z,305.07
2019-01-20T02:13:28.664Z,296.60
2019-01-20T02:14:04.419Z,303.73
2019-01-20T02:14:40.031Z,312.95
2019-01-20T02:15:17.521Z,311.05
2019-01-20T02:15:53.240Z,305.67
2019-01-20T02:16:28.778Z,291.68
2019-01-20T02:17:05.004Z,284.80
2019-01-20T02:17:40.993Z,280.50
2019-01-20T02:18:16.747Z,267.48
2019-01-20T02:18:52.593Z,267.18
2019-01-20T02:19:28.264Z,274.15
2019-01-20T02:20:04.228Z,253.83
2019-01-20T02:20:39.883Z,265.70
2019-01-20T02:21:15.493Z,257.25
2019-01-20T02:21:51.245Z,276.48
2019-01-20T02:22:26.903Z,265.80
2019-01-20T02:23:02.619Z,269.00
2019-01-20T02:23:38.317Z,263.62
2019-01-20T02:24:14.049Z,273.27
2019-01-20T02:24:49.959Z,277.05
2019-01-20T02:25:25.690Z,278.18
2019-01-20T02:26:01.417Z,282.37
2019-01-20T02:26:37.359Z,286.73
2019-01-20T02:27:13.036Z,270.12
2019-01-20T02:27:49.327Z,260.15
2019-01-20T02:28:25.077Z,287.98
2019-01-20T02:29:00.745Z,285.80
2019-01-20T02:29:36.507Z,280.92
2019-01-20T02:30:16.797Z,265.25
2019-01-20T02:30:52.417Z,277.35
2019-01-20T02:31:27.987Z,272.75
2019-01-20T02:32:04.578Z,269.73
2019-01-20T02:32:40.287Z,263.15
2019-01-20T02:33:15.936Z,271.23
2019-01-20T02:33:51.638Z,255.27
2019-01-20T02:34:27.297Z,252.57
2019-01-20T02:35:02.889Z,268.73
2019-01-20T02:35:38.667Z,278.07
2019-01-20T02:36:14.298Z,258.87
2019-01-20T02:36:50.119Z,274.73
2019-01-20T02:37:26.018Z,278.70
2019-01-20T02:38:01.847Z,275.68
2019-01-20T02:38:37.417Z,280.65
2019-01-20T02:39:13.057Z,298.02
2019-01-20T02:39:48.728Z,296.00
2019-01-20T02:40:24.460Z,282.68
2019-01-20T02:41:00.164Z,285.07
2019-01-20T02:41:35.976Z,269.00
2019-01-20T02:42:11.712Z,288.57
2019-01-20T02:42:47.559Z,285.90
2019-01-20T02:43:23.269Z,281.65
2019-01-20T02:43:59.064Z,284.50
2019-01-20T02:44:35.049Z,273.75
2019-01-20T02:45:11.974Z,281.50
2019-01-20T02:45:48.111Z,269.77
2019-01-20T02:46:23.905Z,268.75
2019-01-20T02:46:59.674Z,261.12
2019-01-20T02:47:35.336Z,280.65
2019-01-20T02:48:11.079Z,276.98
2019-01-20T02:48:46.748Z,277.22
2019-01-20T02:49:22.357Z,276.10
2019-01-20T02:49:58.162Z,258.85
2019-01-20T02:50:33.840Z,264.55
2019-01-20T02:51:09.560Z,258.75
2019-01-20T02:51:45.323Z,277.30
2019-01-20T02:52:21.071Z,260.65
2019-01-20T02:52:56.585Z,258.87
2019-01-20T02:53:32.141Z,269.30
2019-01-20T02:54:07.854Z,263.98
2019-01-20T02:54:43.475Z,264.48
2019-01-20T02:55:19.570Z,275.02
2019-01-20T02:55:55.395Z,263.75
2019-01-20T02:56:31.103Z,265.55
2019-01-20T02:57:06.755Z,262.17
2019-01-20T02:57:42.575Z,276.45
2019-01-20T02:58:18.373Z,258.05
2019-01-20T02:58:54.027Z,239.68
2019-01-20T02:59:29.790Z,249.88
2019-01-20T03:00:07.221Z,273.70
2019-01-20T03:00:43.089Z,253.90
2019-01-20T03:01:18.785Z,263.80
2019-01-20T03:01:54.534Z,270.70
2019-01-20T03:02:30.636Z,257.80
2019-01-20T03:03:06.353Z,249.55
2019-01-20T03:03:41.979Z,249.25
2019-01-20T03:04:17.674Z,253.88
2019-01-20T03:04:53.335Z,259.43
2019-01-20T03:05:29.245Z,264.00
2019-01-20T03:06:05.235Z,238.85
2019-01-20T03:06:40.982Z,247.20
2019-01-20T03:07:16.913Z,247.88
2019-01-20T03:07:52.584Z,233.72
2019-01-20T03:08:28.333Z,276.95
2019-01-20T03:09:05.412Z,250.13
2019-01-20T03:09:41.247Z,270.25
2019-01-20T03:10:17.280Z,253.07
2019-01-20T03:10:52.931Z,255.98
2019-01-20T03:11:28.709Z,255.07
2019-01-20T03:12:04.383Z,256.87
2019-01-20T03:12:40.134Z,274.95
2019-01-20T03:13:15.733Z,294.37
2019-01-20T03:13:51.360Z,303.48
2019-01-20T03:14:26.999Z,248.45
2019-01-20T03:15:02.750Z,251.70
2019-01-20T03:15:38.898Z,264.38
2019-01-20T03:16:14.564Z,263.98
2019-01-20T03:16:50.288Z,271.93
2019-01-20T03:17:25.887Z,280.35
2019-01-20T03:18:01.448Z,292.48
2019-01-20T03:18:37.604Z,304.75
2019-01-20T03:19:13.307Z,281.55
2019-01-20T03:19:49.105Z,290.10
2019-01-20T03:20:25.265Z,298.02
2019-01-20T03:21:00.850Z,322.07
2019-01-20T03:21:36.657Z,286.35
2019-01-20T03:22:12.629Z,298.55
2019-01-20T03:22:48.585Z,288.42
2019-01-20T03:23:24.275Z,313.18
2019-01-20T03:23:59.905Z,291.23
2019-01-20T03:24:35.546Z,305.87
2019-01-20T03:25:12.889Z,305.37
2019-01-20T03:25:48.516Z,308.73
2019-01-20T03:26:24.247Z,311.85
2019-01-20T03:26:59.978Z,291.82
2019-01-20T03:27:35.986Z,276.00
2019-01-20T03:28:11.765Z,282.15
2019-01-20T03:28:47.494Z,295.30
2019-01-20T03:29:23.203Z,267.10
2019-01-20T03:29:58.875Z,267.90
2019-01-20T03:30:34.629Z,269.65
2019-01-20T03:31:10.477Z,260.43
2019-01-20T03:31:46.422Z,260.13
2019-01-20T03:32:22.298Z,267.18
2019-01-20T03:32:58.021Z,262.85
2019-01-20T03:33:33.581Z,257.92
2019-01-20T03:34:09.544Z,260.77
2019-01-20T03:34:45.178Z,272.80
2019-01-20T03:35:24.727Z,287.80
2019-01-20T03:36:00.603Z,282.27
2019-01-20T03:36:36.499Z,274.80
2019-01-20T03:37:12.174Z,268.25
2019-01-20T03:37:47.949Z,277.45
2019-01-20T03:38:23.766Z,273.35
2019-01-20T03:38:59.448Z,266.57
2019-01-20T03:39:35.189Z,285.13
2019-01-20T03:40:12.893Z,266.45
2019-01-20T03:40:48.580Z,252.70
2019-01-20T03:41:24.518Z,254.20
2019-01-20T03:42:00.257Z,270.23
2019-01-20T03:42:36.239Z,259.12
2019-01-20T03:43:12.010Z,251.47
2019-01-20T03:43:47.889Z,251.37
2019-01-20T03:44:23.658Z,267.48
2019-01-20T03:44:59.370Z,263.87
2019-01-20T03:45:34.897Z,242.80
2019-01-20T03:46:10.558Z,257.55
2019-01-20T03:46:46.297Z,244.53
2019-01-20T03:47:21.933Z,272.90
2019-01-20T03:47:57.640Z,262.57
2019-01-20T03:48:33.281Z,256.98
2019-01-20T03:49:09.251Z,243.15
2019-01-20T03:49:44.981Z,264.55
2019-01-20T03:50:20.609Z,249.75
2019-01-20T03:50:56.209Z,257.87
2019-01-20T03:51:31.857Z,273.43
2019-01-20T03:52:07.718Z,260.20
2019-01-20T03:52:43.526Z,262.85
2019-01-20T03:53:19.290Z,248.82
2019-01-20T03:53:54.796Z,263.73
2019-01-20T03:54:30.439Z,250.70
2019-01-20T03:55:06.799Z,259.15
2019-01-20T03:55:42.356Z,243.82
2019-01-20T03:56:17.860Z,252.87
2019-01-20T03:56:53.503Z,249.22
2019-01-20T03:57:29.220Z,262.23
2019-01-20T03:58:04.961Z,253.85
2019-01-20T03:58:40.786Z,251.58
2019-01-20T03:59:16.476Z,259.30
2019-01-20T03:59:52.295Z,260.45
2019-01-20T04:00:27.875Z,254.15
2019-01-20T04:01:03.745Z,236.40
2019-01-20T04:01:39.415Z,229.70
2019-01-20T04:02:15.745Z,234.15
2019-01-20T04:03:02.023Z,249.15
2019-01-20T04:03:37.568Z,237.97
2019-01-20T04:04:13.219Z,256.80
2019-01-20T04:04:48.861Z,250.20
2019-01-20T04:05:24.668Z,234.90
2019-01-20T04:06:00.323Z,253.35
2019-01-20T04:06:36.140Z,234.05
2019-01-20T04:07:11.882Z,252.75
2019-01-20T04:07:47.634Z,256.07
2019-01-20T04:08:23.279Z,258.93
2019-01-20T04:08:58.816Z,265.48
2019-01-20T04:09:34.538Z,256.52
2019-01-20T04:10:12.692Z,249.15
2019-01-20T04:10:48.249Z,243.70
2019-01-20T04:11:24.401Z,227.75
2019-01-20T04:12:00.077Z,238.60
2019-01-20T04:12:35.927Z,238.07
2019-01-20T04:13:11.447Z,228.40
2019-01-20T04:13:47.369Z,249.18
2019-01-20T04:14:23.144Z,244.45
2019-01-20T04:14:58.930Z,255.98
2019-01-20T04:15:34.669Z,244.62
2019-01-20T04:16:10.414Z,238.47
2019-01-20T04:16:46.108Z,238.75
2019-01-20T04:17:21.698Z,232.43
2019-01-20T04:17:57.398Z,240.10
2019-01-20T04:18:33.266Z,233.78
2019-01-20T04:19:09.182Z,235.97
2019-01-20T04:19:44.963Z,229.65
2019-01-20T04:20:20.589Z,231.47
2019-01-20T04:20:56.397Z,228.22
2019-01-20T04:21:32.025Z,229.45
2019-01-20T04:22:07.703Z,212.15
2019-01-20T04:22:43.318Z,226.80
2019-01-20T04:23:19.018Z,207.47
2019-01-20T04:23:54.737Z,224.90
2019-01-20T04:24:30.346Z,224.40
2019-01-20T04:25:07.276Z,220.10
2019-01-20T04:25:42.944Z,228.27
2019-01-20T04:26:18.545Z,217.05
2019-01-20T04:26:54.125Z,222.40
2019-01-20T04:27:29.939Z,201.40
2019-01-20T04:28:05.593Z,210.23
2019-01-20T04:28:41.422Z,215.70
2019-01-20T04:29:17.043Z,222.73
2019-01-20T04:29:52.904Z,223.45
2019-01-20T04:30:28.689Z,217.95
2019-01-20T04:31:04.368Z,211.10
2019-01-20T04:31:40.300Z,219.40
2019-01-20T04:32:16.098Z,209.57
2019-01-20T04:32:52.043Z,210.80
2019-01-20T04:33:27.806Z,207.15
2019-01-20T04:34:03.658Z,206.80
2019-01-20T04:34:39.478Z,209.65
2019-01-20T04:35:15.581Z,206.43
2019-01-20T04:35:51.219Z,212.17
2019-01-20T04:36:27.025Z,210.68
2019-01-20T04:37:02.893Z,206.55
2019-01-20T04:37:38.614Z,200.35
2019-01-20T04:38:14.336Z,214.90
2019-01-20T04:38:50.131Z,210.75
2019-01-20T04:39:26.023Z,198.25
2019-01-20T04:40:01.718Z,196.22
2019-01-20T04:40:37.335Z,197.45
2019-01-20T04:41:13.376Z,216.00
2019-01-20T04:41:49.073Z,215.32
2019-01-20T04:42:28.999Z,197.43
2019-01-20T04:43:02.020Z,210.65
2019-01-20T04:43:37.629Z,209.75
2019-01-20T04:44:13.391Z,207.77
2019-01-20T04:44:49.409Z,208.47
2019-01-20T04:45:25.350Z,201.45
2019-01-20T04:46:01.206Z,197.65
2019-01-20T04:46:36.881Z,213.40
2019-01-20T04:47:12.484Z,205.65
2019-01-20T04:47:48.213Z,193.15
2019-01-20T04:48:23.876Z,206.65
2019-01-20T04:48:59.445Z,192.18
2019-01-20T04:49:35.299Z,189.72
2019-01-20T04:50:16.493Z,188.32
2019-01-20T04:50:52.403Z,189.15
2019-01-20T04:51:28.275Z,191.22
2019-01-20T04:52:03.946Z,176.85
2019-01-20T04:52:39.536Z,189.70
2019-01-20T04:53:15.306Z,189.40
2019-01-20T04:53:51.056Z,181.12
2019-01-20T04:54:26.758Z,186.92
2019-01-20T04:55:02.464Z,177.30
2019-01-20T04:55:38.323Z,185.97
2019-01-20T04:56:14.106Z,199.60
2019-01-20T04:56:49.923Z,178.10
2019-01-20T04:57:25.793Z,180.05
2019-01-20T04:58:01.564Z,186.95
2019-01-20T04:58:37.317Z,191.75
2019-01-20T04:59:13.112Z,181.87
2019-01-20T04:59:48.712Z,184.55
2019-01-20T05:00:28.811Z,183.42
2019-01-20T05:01:04.991Z,178.80
2019-01-20T05:01:40.803Z,185.45
2019-01-20T05:02:17.836Z,178.07
2019-01-20T05:02:53.643Z,178.42
2019-01-20T05:03:29.300Z,188.57
2019-01-20T05:04:05.312Z,168.15
2019-01-20T05:04:40.905Z,178.57
2019-01-20T05:05:17.486Z,181.52
2019-01-20T05:05:53.256Z,178.47
2019-01-20T05:06:28.944Z,179.23
2019-01-20T05:07:04.719Z,183.93
2019-01-20T05:07:40.539Z,179.90
2019-01-20T05:08:16.178Z,181.50
2019-01-20T05:08:51.963Z,168.52
2019-01-20T05:09:27.575Z,177.12
2019-01-20T05:10:03.214Z,166.43
2019-01-20T05:10:38.821Z,169.32
2019-01-20T05:11:14.601Z,168.95
2019-01-20T05:11:50.355Z,165.40
2019-01-20T05:12:26.023Z,182.53
2019-01-20T05:13:01.792Z,178.10
2019-01-20T05:13:37.543Z,169.82
2019-01-20T05:14:13.086Z,169.10
2019-01-20T05:14:48.774Z,174.72
2019-01-20T05:15:26.004Z,177.00
2019-01-20T05:16:01.813Z,174.53
2019-01-20T05:16:37.447Z,187.57
2019-01-20T05:17:13.185Z,173.57
2019-01-20T05:17:48.949Z,166.95
2019-01-20T05:18:47.846Z,177.97
2019-01-20T05:19:23.541Z,168.52
2019-01-20T05:19:59.243Z,171.07
2019-01-20T05:20:35.000Z,169.02
2019-01-20T05:21:10.664Z,166.43
2019-01-20T05:21:46.381Z,174.97
2019-01-20T05:22:22.111Z,169.22
2019-01-20T05:22:57.777Z,173.17
2019-01-20T05:23:33.696Z,172.40
2019-01-20T05:24:09.421Z,167.95
2019-01-20T05:24:45.221Z,169.85
2019-01-20T05:25:21.098Z,182.32
2019-01-20T05:25:56.759Z,167.45
2019-01-20T05:26:32.518Z,162.50
2019-01-20T05:27:08.149Z,171.60
2019-01-20T05:27:43.989Z,163.00
2019-01-20T05:28:19.755Z,156.00
2019-01-20T05:28:55.518Z,150.65
2019-01-20T05:29:31.258Z,159.37
2019-01-20T05:30:10.130Z,169.82
2019-01-20T05:30:46.050Z,170.17
2019-01-20T05:31:21.547Z,181.12
2019-01-20T05:31:57.223Z,173.65
2019-01-20T05:32:33.038Z,162.90
2019-01-20T05:33:08.768Z,172.40
2019-01-20T05:33:44.428Z,170.87
2019-01-20T05:34:19.969Z,179.65
2019-01-20T05:34:56.953Z,182.20
2019-01-20T05:35:33.079Z,183.07
2019-01-20T05:36:08.829Z,165.88
2019-01-20T05:36:44.535Z,181.05
2019-01-20T05:37:20.258Z,188.65
2019-01-20T05:37:56.103Z,192.15
2019-01-20T05:38:31.910Z,178.70
2019-01-20T05:39:09.365Z,193.93
2019-01-20T05:39:45.077Z,200.82
2019-01-20T05:40:21.443Z,209.00
2019-01-20T05:40:57.235Z,207.25
2019-01-20T05:41:32.986Z,211.52
2019-01-20T05:42:08.637Z,207.98
2019-01-20T05:42:46.354Z,189.95
2019-01-20T05:43:22.550Z,192.20
2019-01-20T05:43:58.263Z,206.28
2019-01-20T05:44:33.914Z,194.75
2019-01-20T05:45:13.032Z,190.18
2019-01-20T05:45:48.717Z,179.65
2019-01-20T05:46:24.434Z,193.17
2019-01-20T05:47:00.066Z,193.57
2019-01-20T05:47:35.736Z,195.87
2019-01-20T05:48:11.483Z,187.80
2019-01-20T05:48:47.323Z,185.32
2019-01-20T05:49:23.033Z,193.55
2019-01-20T05:49:58.652Z,186.88
2019-01-20T05:50:34.535Z,189.55
2019-01-20T05:51:10.503Z,188.95
2019-01-20T05:51:46.434Z,203.55
2019-01-20T05:52:22.153Z,198.23
2019-01-20T05:52:57.875Z,201.45
2019-01-20T05:53:33.581Z,207.52
2019-01-20T05:54:09.189Z,197.98
2019-01-20T05:54:44.895Z,196.72
2019-01-20T05:55:20.602Z,198.38
2019-01-20T05:55:56.431Z,201.07
2019-01-20T05:56:32.090Z,205.70
2019-01-20T05:57:07.982Z,192.75
2019-01-20T05:57:44.434Z,196.63
2019-01-20T05:58:20.277Z,184.50
2019-01-20T05:58:55.966Z,188.32
2019-01-20T05:59:31.589Z,192.00
2019-01-20T06:00:25.326Z,186.07
2019-01-20T06:01:00.994Z,183.78
2019-01-20T06:01:36.835Z,184.90
2019-01-20T06:02:12.579Z,195.40
2019-01-20T06:02:48.598Z,199.72
2019-01-20T06:03:24.290Z,191.90
2019-01-20T06:04:00.004Z,186.82
2019-01-20T06:04:35.735Z,199.77
2019-01-20T06:05:11.512Z,192.13
2019-01-20T06:05:47.210Z,203.75
2019-01-20T06:06:22.933Z,189.50
2019-01-20T06:06:58.678Z,193.50
2019-01-20T06:07:34.480Z,199.75
2019-01-20T06:08:10.309Z,185.97
2019-01-20T06:08:45.988Z,189.20
2019-01-20T06:09:21.647Z,197.85
2019-01-20T06:09:57.347Z,193.10
2019-01-20T06:10:33.009Z,194.30
2019-01-20T06:11:08.919Z,197.62
2019-01-20T06:11:44.800Z,208.70
2019-01-20T06:12:20.616Z,188.95
2019-01-20T06:12:56.340Z,199.97
2019-01-20T06:13:32.092Z,199.68
2019-01-20T06:14:07.934Z,191.35
2019-01-20T06:14:43.685Z,194.32
2019-01-20T06:15:20.699Z,194.10
2019-01-20T06:15:56.480Z,190.35
2019-01-20T06:16:32.342Z,180.65
2019-01-20T06:17:08.081Z,193.62
2019-01-20T06:17:44.106Z,202.07
2019-01-20T06:18:19.917Z,202.60
2019-01-20T06:18:56.022Z,202.82
2019-01-20T06:19:31.617Z,196.05
2019-01-20T06:20:08.684Z,203.05
2019-01-20T06:20:44.556Z,191.18
2019-01-20T06:21:20.370Z,196.02
2019-01-20T06:21:56.243Z,210.40
2019-01-20T06:22:31.821Z,206.55
2019-01-20T06:23:07.377Z,194.28
2019-01-20T06:23:43.122Z,196.22
2019-01-20T06:24:19.110Z,189.80
2019-01-20T06:24:54.973Z,194.43
2019-01-20T06:25:30.782Z,199.55
2019-01-20T06:26:06.553Z,190.62
2019-01-20T06:26:42.606Z,197.82
2019-01-20T06:27:18.331Z,195.25
2019-01-20T06:27:54.243Z,181.75
2019-01-20T06:28:29.930Z,199.17
2019-01-20T06:29:05.701Z,192.77
2019-01-20T06:29:41.638Z,192.28
2019-01-20T06:30:25.524Z,182.30
2019-01-20T06:31:01.305Z,183.35
2019-01-20T06:31:37.025Z,178.23
2019-01-20T06:32:12.595Z,180.90
2019-01-20T06:32:48.235Z,188.90
2019-01-20T06:33:23.749Z,179.10
2019-01-20T06:33:59.587Z,188.70
2019-01-20T06:34:35.361Z,195.22
2019-01-20T06:35:11.280Z,194.30
2019-01-20T06:35:47.086Z,197.17
2019-01-20T06:36:23.069Z,186.45
2019-01-20T06:36:58.819Z,190.68
2019-01-20T06:37:34.841Z,178.95
2019-01-20T06:38:10.655Z,205.80
2019-01-20T06:38:46.482Z,185.57
2019-01-20T06:39:22.038Z,195.00
2019-01-20T06:39:57.838Z,196.85
2019-01-20T06:40:33.765Z,192.13
2019-01-20T06:41:09.576Z,185.73
2019-01-20T06:41:45.288Z,194.43
2019-01-20T06:42:20.908Z,192.35
2019-01-20T06:43:01.873Z,199.35
2019-01-20T06:43:34.218Z,195.80
2019-01-20T06:44:09.999Z,190.50
2019-01-20T06:44:45.816Z,189.95
2019-01-20T06:45:21.771Z,189.18
2019-01-20T06:45:57.601Z,187.53
2019-01-20T06:46:33.261Z,189.13
2019-01-20T06:47:09.011Z,195.68
2019-01-20T06:47:44.887Z,189.62
2019-01-20T06:48:20.576Z,191.75
2019-01-20T06:48:56.383Z,184.13
2019-01-20T06:49:32.308Z,181.10
2019-01-20T06:50:09.818Z,190.07
2019-01-20T06:50:45.465Z,181.43
2019-01-20T06:51:21.156Z,179.45
2019-01-20T06:51:57.065Z,172.82
2019-01-20T06:52:32.828Z,181.15
2019-01-20T06:53:08.598Z,184.65
2019-01-20T06:53:44.337Z,174.35
2019-01-20T06:54:19.994Z,192.28
2019-01-20T06:54:55.773Z,177.43
2019-01-20T06:55:31.464Z,180.80
2019-01-20T06:56:07.363Z,176.30
2019-01-20T06:56:43.230Z,177.15
2019-01-20T06:57:18.966Z,188.87
2019-01-20T06:57:54.805Z,182.75
2019-01-20T06:58:30.589Z,176.82
2019-01-20T06:59:06.256Z,176.87
2019-01-20T06:59:42.005Z,183.70
2019-01-20T07:00:22.327Z,187.77
2019-01-20T07:00:57.994Z,169.30
2019-01-20T07:01:33.835Z,173.28
2019-01-20T07:02:09.736Z,179.60
2019-01-20T07:02:45.748Z,169.60
2019-01-20T07:03:21.375Z,165.25
2019-01-20T07:03:57.204Z,169.90
2019-01-20T07:04:32.968Z,166.03
2019-01-20T07:05:09.183Z,168.93
2019-01-20T07:05:44.949Z,165.10
2019-01-20T07:06:20.663Z,175.45
2019-01-20T07:06:56.526Z,177.07
2019-01-20T07:07:32.628Z,170.50
2019-01-20T07:08:08.307Z,161.62
2019-01-20T07:08:44.247Z,165.12
2019-01-20T07:09:19.996Z,161.85
2019-01-20T07:09:55.843Z,166.92
2019-01-20T07:10:31.719Z,157.62
2019-01-20T07:11:07.515Z,164.60
2019-01-20T07:11:43.268Z,165.22
2019-01-20T07:12:19.161Z,164.70
2019-01-20T07:12:55.182Z,168.35
2019-01-20T07:13:30.952Z,168.72
2019-01-20T07:14:06.808Z,177.38
2019-01-20T07:14:42.667Z,174.62
2019-01-20T07:15:20.152Z,176.68
2019-01-20T07:15:56.163Z,172.22
2019-01-20T07:16:32.142Z,173.43
2019-01-20T07:17:07.984Z,170.38
2019-01-20T07:17:43.912Z,165.95
2019-01-20T07:18:19.912Z,180.72
2019-01-20T07:18:55.863Z,172.45
2019-01-20T07:19:31.631Z,170.22
2019-01-20T07:20:08.761Z,164.77
2019-01-20T07:20:44.479Z,169.97
2019-01-20T07:21:20.368Z,161.15
2019-01-20T07:21:56.185Z,167.30
2019-01-20T07:22:31.998Z,165.62
2019-01-20T07:23:07.837Z,168.35
2019-01-20T07:23:43.787Z,177.50
2019-01-20T07:24:19.571Z,182.22
2019-01-20T07:24:55.466Z,174.53
2019-01-20T07:25:31.349Z,162.35
2019-01-20T07:26:07.072Z,160.45
2019-01-20T07:26:43.823Z,171.90
2019-01-20T07:27:19.649Z,167.03
2019-01-20T07:27:55.445Z,153.78
2019-01-20T07:28:31.350Z,152.00